Time;durP1;ratioP1;P1;durP2;ratioP2;P2;SDS_P1;SDS_P2;PMS_P1;PMS_P2;Temp;Humidity;BMP_temperature;BMP_pressure;BME280_temperature;BME280_humidity;BME280_pressure;Samples;Min_cycle;Max_cycle;Signal;HPM_P1;HPM_P2
2023/08/16 00:00:06;;;;;;;2.08;1.63;;;;;;;;;;5013020;28;20073;-64
2023/08/16 00:02:32;;;;;;;1.08;0.90;;;;;;;;;;5013209;28;20092;-64
2023/08/16 00:04:58;;;;;;;1.15;1.05;;;;;;;;;;5013088;28;20048;-64
2023/08/16 00:07:24;;;;;;;1.08;0.98;;;;;;;;;;5012133;28;20060;-64
2023/08/16 00:09:54;;;;;;;1.10;1.00;;;;;;;;;;5014339;28;20714;-64
2023/08/16 00:12:20;;;;;;;0.80;0.80;;;;;;;;;;5014536;28;20049;-64
2023/08/16 00:14:46;;;;;;;0.70;0.70;;;;;;;;;;5016026;28;20044;-64
2023/08/16 00:17:12;;;;;;;0.82;0.80;;;;;;;;;;5012967;28;20042;-65
2023/08/16 00:19:38;;;;;;;1.25;0.98;;;;;;;;;;5012912;28;20412;-65
2023/08/16 00:22:05;;;;;;;0.80;0.60;;;;;;;;;;5013933;28;20121;-64
2023/08/16 00:24:31;;;;;;;0.68;0.68;;;;;;;;;;5016451;28;20475;-64
2023/08/16 00:26:57;;;;;;;0.70;0.70;;;;;;;;;;5015914;28;20081;-64
2023/08/16 00:29:23;;;;;;;0.73;0.73;;;;;;;;;;5012272;28;20078;-64
2023/08/16 00:31:49;;;;;;;0.70;0.50;;;;;;;;;;5013232;28;20049;-65
2023/08/16 00:34:15;;;;;;;1.17;1.08;;;;;;;;;;5014228;28;20045;-65
2023/08/16 00:36:41;;;;;;;0.65;0.65;;;;;;;;;;5015120;28;20698;-64
2023/08/16 00:39:07;;;;;;;1.67;0.98;;;;;;;;;;5015215;28;20685;-64
2023/08/16 00:41:33;;;;;;;1.48;0.90;;;;;;;;;;5012957;28;20423;-64
2023/08/16 00:43:59;;;;;;;0.70;0.70;;;;;;;;;;5012203;28;20045;-64
2023/08/16 00:46:27;;;;;;;0.50;0.50;;;;;;;;;;5013249;28;20053;-64
2023/08/16 00:48:53;;;;;;;0.68;0.68;;;;;;;;;;5015738;28;20072;-64
2023/08/16 00:51:20;;;;;;;0.60;0.60;;;;;;;;;;5015141;28;20046;-64
2023/08/16 00:53:47;;;;;;;0.77;0.70;;;;;;;;;;5014817;28;20037;-64
2023/08/16 00:56:16;;;;;;;0.73;0.52;;;;;;;;;;5016114;28;20069;-64
2023/08/16 00:58:42;;;;;;;1.45;0.50;;;;;;;;;;5018231;28;20511;-64
2023/08/16 01:01:09;;;;;;;0.50;0.50;;;;;;;;;;5019652;28;20037;-64
2023/08/16 01:03:35;;;;;;;0.65;0.50;;;;;;;;;;5019209;28;20050;-64
2023/08/16 01:06:01;;;;;;;0.40;0.40;;;;;;;;;;5015500;28;20092;-64
2023/08/16 01:08:27;;;;;;;0.50;0.50;;;;;;;;;;5016730;28;20046;-65
2023/08/16 01:11:02;;;;;;;0.50;0.50;;;;;;;;;;5018180;28;20415;-65
2023/08/16 01:13:33;;;;;;;0.40;0.40;;;;;;;;;;5019944;28;20383;-65
2023/08/16 01:15:59;;;;;;;0.50;0.50;;;;;;;;;;5017816;28;20045;-64
2023/08/16 01:18:26;;;;;;;0.35;0.35;;;;;;;;;;5015423;28;20081;-64
2023/08/16 01:20:53;;;;;;;0.30;0.30;;;;;;;;;;5014754;28;20472;-64
2023/08/16 01:23:27;;;;;;;0.43;0.43;;;;;;;;;;5018999;28;20572;-64
2023/08/16 01:25:59;;;;;;;0.38;0.38;;;;;;;;;;5018630;28;20059;-64
2023/08/16 01:28:25;;;;;;;;;;;;;;;;;;5016488;28;20121;-64
2023/08/16 01:30:54;;;;;;;0.50;0.50;;;;;;;;;;5015913;28;20467;-64
2023/08/16 01:33:20;;;;;;;0.50;0.40;;;;;;;;;;5015167;28;20138;-64
2023/08/16 01:35:46;;;;;;;0.88;0.82;;;;;;;;;;5012978;28;20499;-65
2023/08/16 01:38:13;;;;;;;0.80;0.80;;;;;;;;;;5018179;28;20116;-64
2023/08/16 01:40:41;;;;;;;0.60;0.60;;;;;;;;;;5015219;28;20369;-64
2023/08/16 01:43:09;;;;;;;0.70;0.70;;;;;;;;;;5015106;28;20084;-64
2023/08/16 01:45:36;;;;;;;0.70;0.70;;;;;;;;;;5018497;28;20052;-65
2023/08/16 01:48:03;;;;;;;0.77;0.70;;;;;;;;;;5018641;28;20038;-64
2023/08/16 01:50:29;;;;;;;0.80;0.80;;;;;;;;;;5017812;28;20045;-64
2023/08/16 01:52:55;;;;;;;0.90;0.90;;;;;;;;;;5015047;28;20052;-64
2023/08/16 01:55:21;;;;;;;0.95;0.85;;;;;;;;;;5014974;28;20103;-64
2023/08/16 01:57:47;;;;;;;0.80;0.70;;;;;;;;;;5017954;28;20053;-64
2023/08/16 02:00:15;;;;;;;0.80;0.80;;;;;;;;;;5017182;28;20052;-64
2023/08/16 02:02:41;;;;;;;0.98;0.63;;;;;;;;;;5017321;28;20171;-64
2023/08/16 02:05:07;;;;;;;1.20;1.10;;;;;;;;;;5014425;28;20088;-64
2023/08/16 02:07:33;;;;;;;1.20;1.10;;;;;;;;;;5015155;28;20088;-64
2023/08/16 02:09:59;;;;;;;0.95;0.85;;;;;;;;;;5017735;28;20058;-64
2023/08/16 02:12:25;;;;;;;1.00;0.90;;;;;;;;;;5018244;28;20049;-64
2023/08/16 02:14:51;;;;;;;1.10;1.00;;;;;;;;;;5016989;28;20427;-64
2023/08/16 02:17:17;;;;;;;0.75;0.75;;;;;;;;;;5014871;28;20042;-64
2023/08/16 02:19:43;;;;;;;0.70;0.70;;;;;;;;;;5014895;28;20472;-64
2023/08/16 02:22:09;;;;;;;1.13;1.13;;;;;;;;;;5016089;28;20038;-64
2023/08/16 02:24:35;;;;;;;1.02;0.88;;;;;;;;;;5018299;28;20041;-64
2023/08/16 02:27:01;;;;;;;1.13;1.02;;;;;;;;;;5017360;28;20049;-64
2023/08/16 02:29:27;;;;;;;0.80;0.73;;;;;;;;;;5014242;28;20044;-64
2023/08/16 02:31:53;;;;;;;0.60;0.60;;;;;;;;;;5014625;28;20045;-64
2023/08/16 02:34:19;;;;;;;0.55;0.50;;;;;;;;;;5014951;28;20364;-64
2023/08/16 02:36:45;;;;;;;0.60;0.60;;;;;;;;;;5017480;28;20195;-64
2023/08/16 02:39:11;;;;;;;0.70;0.70;;;;;;;;;;5017251;28;20687;-64
2023/08/16 02:41:37;;;;;;;0.60;0.60;;;;;;;;;;5014704;28;20034;-64
2023/08/16 02:44:03;;;;;;;0.60;0.60;;;;;;;;;;5014339;28;20054;-64
2023/08/16 02:46:29;;;;;;;0.80;0.80;;;;;;;;;;5016692;28;20045;-64
2023/08/16 02:48:55;;;;;;;0.80;0.80;;;;;;;;;;5017391;28;20076;-64
2023/08/16 02:51:21;;;;;;;1.10;0.57;;;;;;;;;;5016784;28;20132;-64
2023/08/16 02:53:47;;;;;;;0.70;0.70;;;;;;;;;;5017628;28;20128;-64
2023/08/16 02:56:13;;;;;;;1.35;1.02;;;;;;;;;;5016195;28;20110;-64
2023/08/16 02:58:39;;;;;;;0.70;0.70;;;;;;;;;;5015872;28;20045;-64
2023/08/16 03:01:06;;;;;;;0.50;0.50;;;;;;;;;;5014292;28;20377;-64
2023/08/16 03:03:32;;;;;;;0.90;0.80;;;;;;;;;;5014224;28;20420;-64
2023/08/16 03:05:58;;;;;;;0.80;0.80;;;;;;;;;;5017227;28;20418;-64
2023/08/16 03:08:24;;;;;;;0.70;0.70;;;;;;;;;;5017166;28;20037;-64
2023/08/16 03:10:50;;;;;;;0.70;0.70;;;;;;;;;;5015566;28;20053;-64
2023/08/16 03:13:16;;;;;;;0.95;0.60;;;;;;;;;;5013797;28;20057;-64
2023/08/16 03:15:42;;;;;;;1.33;0.80;;;;;;;;;;5012957;28;20050;-64
2023/08/16 03:18:08;;;;;;;1.10;1.00;;;;;;;;;;5016004;28;20056;-64
2023/08/16 03:20:34;;;;;;;0.80;0.80;;;;;;;;;;5017207;28;20045;-64
2023/08/16 03:23:01;;;;;;;0.70;0.70;;;;;;;;;;5015308;28;20543;-64
2023/08/16 03:25:27;;;;;;;0.82;0.82;;;;;;;;;;5019511;28;20084;-64
2023/08/16 03:27:53;;;;;;;1.25;0.90;;;;;;;;;;5013054;28;20068;-64
2023/08/16 03:30:19;;;;;;;0.95;0.95;;;;;;;;;;5015515;28;20060;-64
2023/08/16 03:32:45;;;;;;;0.73;0.73;;;;;;;;;;5016216;28;20037;-64
2023/08/16 03:35:11;;;;;;;1.13;0.98;;;;;;;;;;5015181;28;20471;-64
2023/08/16 03:37:37;;;;;;;1.00;0.82;;;;;;;;;;5013254;28;20034;-64
2023/08/16 03:40:05;;;;;;;0.90;0.90;;;;;;;;;;5012879;28;20045;-64
2023/08/16 03:42:31;;;;;;;1.08;1.02;;;;;;;;;;5016493;28;20046;-64
2023/08/16 03:44:57;;;;;;;1.15;0.73;;;;;;;;;;5016525;28;20558;-64
2023/08/16 03:47:23;;;;;;;1.13;1.02;;;;;;;;;;5014321;28;20479;-64
2023/08/16 03:49:49;;;;;;;2.22;1.27;;;;;;;;;;5013622;28;20038;-64
2023/08/16 03:52:15;;;;;;;0.95;0.95;;;;;;;;;;5012889;28;20099;-64
2023/08/16 03:54:41;;;;;;;1.00;0.88;;;;;;;;;;5015394;28;20045;-64
2023/08/16 03:57:07;;;;;;;1.70;1.20;;;;;;;;;;5015588;28;20400;-64
2023/08/16 03:59:33;;;;;;;0.90;0.88;;;;;;;;;;5015454;28;20044;-64
2023/08/16 04:01:59;;;;;;;2.63;0.90;;;;;;;;;;5013212;28;20044;-64
2023/08/16 04:04:26;;;;;;;1.10;1.00;;;;;;;;;;5011363;28;20053;-64
2023/08/16 04:06:52;;;;;;;1.10;1.00;;;;;;;;;;5012956;28;20050;-64
2023/08/16 04:09:18;;;;;;;1.52;0.80;;;;;;;;;;5015688;28;20111;-64
2023/08/16 04:11:44;;;;;;;0.90;0.90;;;;;;;;;;5015276;28;20107;-64
2023/08/16 04:14:10;;;;;;;0.85;0.85;;;;;;;;;;5012120;28;20463;-64
2023/08/16 04:16:36;;;;;;;1.00;1.00;;;;;;;;;;5013375;28;20471;-64
2023/08/16 04:19:02;;;;;;;1.27;1.17;;;;;;;;;;5015163;28;20038;-65
2023/08/16 04:21:28;;;;;;;0.82;0.82;;;;;;;;;;5015636;28;20049;-64
2023/08/16 04:23:54;;;;;;;1.20;1.10;;;;;;;;;;5016213;28;20388;-64
2023/08/16 04:26:21;;;;;;;1.35;1.17;;;;;;;;;;5011742;28;20124;-64
2023/08/16 04:28:47;;;;;;;1.00;0.80;;;;;;;;;;5012330;28;20504;-64
2023/08/16 04:31:13;;;;;;;1.30;1.20;;;;;;;;;;5014069;28;20119;-64
2023/08/16 04:33:39;;;;;;;0.90;0.90;;;;;;;;;;5015808;28;20633;-64
2023/08/16 04:36:05;;;;;;;0.75;0.75;;;;;;;;;;5014152;28;20085;-64
2023/08/16 04:38:31;;;;;;;0.70;0.70;;;;;;;;;;5016538;28;20033;-64
2023/08/16 04:40:58;;;;;;;0.70;0.70;;;;;;;;;;5015705;28;20044;-64
2023/08/16 04:43:24;;;;;;;0.50;0.50;;;;;;;;;;5013194;28;20633;-64
2023/08/16 04:45:50;;;;;;;0.50;0.50;;;;;;;;;;5012397;28;20089;-64
2023/08/16 04:48:16;;;;;;;0.60;0.60;;;;;;;;;;5011716;28;20157;-64
2023/08/16 04:50:42;;;;;;;0.57;0.57;;;;;;;;;;5021354;28;20064;-64
2023/08/16 04:53:08;;;;;;;0.50;0.50;;;;;;;;;;5015036;28;20075;-64
2023/08/16 04:55:34;;;;;;;0.50;0.50;;;;;;;;;;5013779;28;20191;-64
2023/08/16 04:58:00;;;;;;;0.52;0.50;;;;;;;;;;5012425;28;20204;-64
2023/08/16 05:00:26;;;;;;;0.47;0.47;;;;;;;;;;5012528;28;20041;-64
2023/08/16 05:02:52;;;;;;;0.60;0.60;;;;;;;;;;5014652;28;20049;-65
2023/08/16 05:05:18;;;;;;;0.57;0.57;;;;;;;;;;5015448;28;20404;-64
2023/08/16 05:07:44;;;;;;;0.52;0.52;;;;;;;;;;5013152;28;20096;-64
2023/08/16 05:10:10;;;;;;;0.85;0.75;;;;;;;;;;5011464;28;20042;-64
2023/08/16 05:12:36;;;;;;;0.50;0.50;;;;;;;;;;5012466;28;20451;-64
2023/08/16 05:15:03;;;;;;;0.40;0.40;;;;;;;;;;5014911;28;20582;-64
2023/08/16 05:17:29;;;;;;;0.80;0.80;;;;;;;;;;5014848;28;20041;-64
2023/08/16 05:19:55;;;;;;;0.45;0.45;;;;;;;;;;5014654;28;20151;-64
2023/08/16 05:22:24;;;;;;;0.60;0.60;;;;;;;;;;5011749;28;20112;-64
2023/08/16 05:24:50;;;;;;;0.50;0.50;;;;;;;;;;5011377;28;20054;-64
2023/08/16 05:27:16;;;;;;;0.50;0.50;;;;;;;;;;5014692;28;20046;-64
2023/08/16 05:29:42;;;;;;;0.50;0.50;;;;;;;;;;5015560;28;20099;-64
2023/08/16 05:32:09;;;;;;;0.40;0.40;;;;;;;;;;5014066;28;20052;-64
2023/08/16 05:34:35;;;;;;;0.88;0.30;;;;;;;;;;5012847;28;20052;-64
2023/08/16 05:37:01;;;;;;;0.50;0.50;;;;;;;;;;5012353;28;20038;-64
2023/08/16 05:39:27;;;;;;;0.40;0.40;;;;;;;;;;5014951;28;20072;-64
2023/08/16 05:41:53;;;;;;;0.40;0.40;;;;;;;;;;5018787;28;20045;-64
2023/08/16 05:44:19;;;;;;;0.50;0.50;;;;;;;;;;5017949;28;20053;-64
2023/08/16 05:46:45;;;;;;;0.50;0.50;;;;;;;;;;5015030;28;20045;-64
2023/08/16 05:49:12;;;;;;;0.30;0.30;;;;;;;;;;5015335;28;20037;-64
2023/08/16 05:51:38;;;;;;;0.40;0.40;;;;;;;;;;5017870;28;20033;-64
2023/08/16 05:54:04;;;;;;;0.35;0.35;;;;;;;;;;5018163;28;20045;-64
2023/08/16 05:56:30;;;;;;;0.20;0.15;;;;;;;;;;5017940;28;20515;-64
2023/08/16 05:58:56;;;;;;;0.40;0.40;;;;;;;;;;5014952;28;20073;-65
2023/08/16 06:01:23;;;;;;;0.30;0.22;;;;;;;;;;5014957;28;20088;-64
2023/08/16 06:03:49;;;;;;;0.20;0.20;;;;;;;;;;5024315;28;20710;-64
2023/08/16 06:06:15;;;;;;;0.30;0.30;;;;;;;;;;5012628;28;20112;-64
2023/08/16 06:08:41;;;;;;;0.22;0.22;;;;;;;;;;5022704;28;20037;-64
2023/08/16 06:11:08;;;;;;;0.20;0.20;;;;;;;;;;5018437;28;20044;-64
2023/08/16 06:13:34;;;;;;;0.10;0.10;;;;;;;;;;5018333;28;20047;-64
2023/08/16 06:16:00;;;;;;;0.10;0.10;;;;;;;;;;5016429;28;20072;-64
2023/08/16 06:18:26;;;;;;;0.15;0.15;;;;;;;;;;5014984;28;20500;-64
2023/08/16 06:20:52;;;;;;;0.10;0.10;;;;;;;;;;5014440;28;20038;-64
2023/08/16 06:23:18;;;;;;;0.13;0.13;;;;;;;;;;5017670;28;20041;-64
2023/08/16 06:25:45;;;;;;;0.20;0.20;;;;;;;;;;5018438;28;20118;-65
2023/08/16 06:28:11;;;;;;;0.10;0.10;;;;;;;;;;5015896;28;20057;-65
2023/08/16 06:30:37;;;;;;;0.20;0.20;;;;;;;;;;5015139;28;20037;-64
2023/08/16 06:33:03;;;;;;;0.10;0.10;;;;;;;;;;5014987;28;20069;-65
2023/08/16 06:35:29;;;;;;;0.10;0.10;;;;;;;;;;5017346;28;20048;-64
2023/08/16 06:37:57;;;;;;;0.10;0.10;;;;;;;;;;5018125;28;20055;-64
2023/08/16 06:40:23;;;;;;;0.20;0.20;;;;;;;;;;5015933;28;20479;-64
2023/08/16 06:42:49;;;;;;;0.10;0.10;;;;;;;;;;5014332;28;20113;-64
2023/08/16 06:45:15;;;;;;;0.10;0.10;;;;;;;;;;5012733;28;20053;-65
2023/08/16 06:47:42;;;;;;;0.10;0.10;;;;;;;;;;5018327;28;20037;-64
2023/08/16 06:50:08;;;;;;;0.00;0.00;;;;;;;;;;5014484;28;20406;-64
2023/08/16 06:52:34;;;;;;;0.10;0.10;;;;;;;;;;5016159;28;20120;-64
2023/08/16 06:55:00;;;;;;;0.00;0.00;;;;;;;;;;5014406;28;20140;-64
2023/08/16 06:57:26;;;;;;;0.70;0.10;;;;;;;;;;5013910;28;20049;-64
2023/08/16 06:59:52;;;;;;;0.00;0.00;;;;;;;;;;5017401;28;20335;-64
2023/08/16 07:02:20;;;;;;;0.03;0.00;;;;;;;;;;5016807;28;20590;-64
2023/08/16 07:04:46;;;;;;;0.57;0.10;;;;;;;;;;5015646;28;20502;-64
2023/08/16 07:07:12;;;;;;;0.00;0.00;;;;;;;;;;5014047;28;20053;-64
2023/08/16 07:09:38;;;;;;;0.03;0.03;;;;;;;;;;5013216;28;20128;-64
2023/08/16 07:12:04;;;;;;;0.10;0.10;;;;;;;;;;5017223;28;20042;-64
2023/08/16 07:14:31;;;;;;;0.10;0.10;;;;;;;;;;5017064;28;20037;-64
2023/08/16 07:16:57;;;;;;;0.10;0.10;;;;;;;;;;5015565;28;20049;-65
2023/08/16 07:19:23;;;;;;;0.10;0.10;;;;;;;;;;5013874;28;20034;-65
2023/08/16 07:21:49;;;;;;;0.10;0.10;;;;;;;;;;5014113;28;20042;-65
2023/08/16 07:24:15;;;;;;;0.00;0.00;;;;;;;;;;5015537;28;20091;-64
2023/08/16 07:26:41;;;;;;;0.10;0.10;;;;;;;;;;5017158;28;20041;-64
2023/08/16 07:29:07;;;;;;;0.20;0.20;;;;;;;;;;5015513;28;20480;-65
2023/08/16 07:31:33;;;;;;;0.00;0.00;;;;;;;;;;5013587;28;20046;-65
2023/08/16 07:33:59;;;;;;;0.13;0.13;;;;;;;;;;5013590;28;20423;-65
2023/08/16 07:36:27;;;;;;;0.15;0.13;;;;;;;;;;5016139;28;20056;-65
2023/08/16 07:38:53;;;;;;;0.10;0.10;;;;;;;;;;5016125;28;20507;-65
2023/08/16 07:41:19;;;;;;;0.30;0.10;;;;;;;;;;5015119;28;20050;-65
2023/08/16 07:43:45;;;;;;;0.25;0.25;;;;;;;;;;5013182;28;20124;-65
2023/08/16 07:46:11;;;;;;;0.65;0.20;;;;;;;;;;5012382;28;20049;-65
2023/08/16 07:48:37;;;;;;;0.45;0.20;;;;;;;;;;5015747;28;20092;-65
2023/08/16 07:51:03;;;;;;;0.65;0.20;;;;;;;;;;5016668;28;20051;-64
2023/08/16 07:53:29;;;;;;;1.20;0.60;;;;;;;;;;5014917;28;20473;-64
2023/08/16 07:55:56;;;;;;;0.30;0.30;;;;;;;;;;4998614;28;20058;-64
2023/08/16 07:58:22;;;;;;;0.28;0.15;;;;;;;;;;5017191;28;20041;-64
2023/08/16 08:00:52;;;;;;;0.52;0.38;;;;;;;;;;5015205;28;20151;-64
2023/08/16 08:03:18;;;;;;;0.22;0.22;;;;;;;;;;5015723;28;20116;-64
2023/08/16 08:05:44;;;;;;;0.13;0.10;;;;;;;;;;5014582;28;20132;-65
2023/08/16 08:08:11;;;;;;;0.30;0.20;;;;;;;;;;5012925;28;20121;-65
2023/08/16 08:10:37;;;;;;;0.50;0.50;;;;;;;;;;5013917;28;20038;-65
2023/08/16 08:13:03;;;;;;;0.50;0.50;;;;;;;;;;5015323;28;20060;-65
2023/08/16 08:15:29;;;;;;;0.80;0.47;;;;;;;;;;5016053;28;20033;-65
2023/08/16 08:17:56;;;;;;;2.35;1.13;;;;;;;;;;5015128;28;20044;-65
2023/08/16 08:20:22;;;;;;;0.98;0.60;;;;;;;;;;5012361;28;20034;-65
2023/08/16 08:22:48;;;;;;;0.85;0.45;;;;;;;;;;5011985;28;20045;-65
2023/08/16 08:25:14;;;;;;;1.85;0.68;;;;;;;;;;5015297;28;20046;-65
2023/08/16 08:27:40;;;;;;;0.35;0.30;;;;;;;;;;5015744;28;20029;-65
2023/08/16 08:30:07;;;;;;;0.43;0.43;;;;;;;;;;5015536;28;20376;-65
2023/08/16 08:32:33;;;;;;;0.80;0.50;;;;;;;;;;5013682;28;20069;-65
2023/08/16 08:34:59;;;;;;;0.82;0.50;;;;;;;;;;5012172;28;20076;-65
2023/08/16 08:37:26;;;;;;;1.55;0.50;;;;;;;;;;5014828;28;20412;-65
2023/08/16 08:39:52;;;;;;;0.52;0.52;;;;;;;;;;5015999;28;20540;-65
2023/08/16 08:42:18;;;;;;;1.23;0.60;;;;;;;;;;5014096;28;20483;-65
2023/08/16 08:44:44;;;;;;;0.40;0.30;;;;;;;;;;5012712;28;20060;-65
2023/08/16 08:47:11;;;;;;;0.68;0.40;;;;;;;;;;5012568;28;20503;-65
2023/08/16 08:49:39;;;;;;;0.90;0.50;;;;;;;;;;5014629;28;20449;-65
2023/08/16 08:52:05;;;;;;;0.45;0.35;;;;;;;;;;5016095;28;20069;-65
2023/08/16 08:54:31;;;;;;;1.17;0.50;;;;;;;;;;5014833;28;20126;-65
2023/08/16 08:57:02;;;;;;;1.10;0.35;;;;;;;;;;5011965;28;20679;-65
2023/08/16 08:59:29;;;;;;;1.17;0.47;;;;;;;;;;5012627;28;20416;-65
2023/08/16 09:01:55;;;;;;;0.60;0.60;;;;;;;;;;5015383;28;20056;-65
2023/08/16 09:04:21;;;;;;;1.10;0.50;;;;;;;;;;5015669;28;20848;-65
2023/08/16 09:06:48;;;;;;;0.77;0.40;;;;;;;;;;5014275;28;20041;-65
2023/08/16 09:09:14;;;;;;;1.33;0.50;;;;;;;;;;5011729;28;20091;-65
2023/08/16 09:11:40;;;;;;;1.13;0.60;;;;;;;;;;5012593;28;20049;-65
2023/08/16 09:14:07;;;;;;;0.40;0.40;;;;;;;;;;5016700;28;20034;-65
2023/08/16 09:16:33;;;;;;;0.30;0.30;;;;;;;;;;5019446;28;20181;-65
2023/08/16 09:18:59;;;;;;;0.57;0.57;;;;;;;;;;5018165;28;20041;-65
2023/08/16 09:21:28;;;;;;;0.82;0.60;;;;;;;;;;5015619;28;20277;-65
2023/08/16 09:24:00;;;;;;;0.80;0.60;;;;;;;;;;5015640;28;20054;-65
2023/08/16 09:26:29;;;;;;;0.88;0.65;;;;;;;;;;5016049;28;20645;-65
2023/08/16 09:28:59;;;;;;;1.30;0.60;;;;;;;;;;5016253;28;20042;-65
2023/08/16 09:31:29;;;;;;;1.05;0.50;;;;;;;;;;5018401;28;20044;-65
2023/08/16 09:33:55;;;;;;;0.68;0.55;;;;;;;;;;5019332;28;20583;-65
2023/08/16 09:36:21;;;;;;;0.45;0.40;;;;;;;;;;5017469;28;20046;-65
2023/08/16 09:38:48;;;;;;;0.93;0.50;;;;;;;;;;5016020;28;20056;-65
2023/08/16 09:41:16;;;;;;;1.40;0.68;;;;;;;;;;5015772;28;20136;-65
2023/08/16 09:43:42;;;;;;;0.28;0.28;;;;;;;;;;5019074;28;20045;-65
2023/08/16 09:46:08;;;;;;;1.70;0.50;;;;;;;;;;5018007;28;20120;-65
2023/08/16 09:48:36;;;;;;;0.60;0.30;;;;;;;;;;5017387;28;20685;-65
2023/08/16 09:51:07;;;;;;;0.85;0.45;;;;;;;;;;5015419;28;20081;-65
2023/08/16 09:53:34;;;;;;;0.75;0.30;;;;;;;;;;5017754;28;20057;-65
2023/08/16 09:56:00;;;;;;;0.40;0.40;;;;;;;;;;5019321;28;20587;-65
2023/08/16 09:58:27;;;;;;;1.60;0.50;;;;;;;;;;5018606;28;20049;-65
2023/08/16 10:00:56;;;;;;;0.52;0.30;;;;;;;;;;5015722;28;20421;-65
2023/08/16 10:03:22;;;;;;;0.30;0.30;;;;;;;;;;5015348;28;20100;-65
2023/08/16 10:05:50;;;;;;;0.20;0.20;;;;;;;;;;5016526;28;20042;-65
2023/08/16 10:08:16;;;;;;;0.85;0.32;;;;;;;;;;5018122;28;20041;-65
2023/08/16 10:10:42;;;;;;;0.70;0.50;;;;;;;;;;5017239;28;20042;-65
2023/08/16 10:13:09;;;;;;;0.52;0.50;;;;;;;;;;5022980;28;20052;-65
2023/08/16 10:15:36;;;;;;;0.68;0.50;;;;;;;;;;5016355;28;20124;-65
2023/08/16 10:18:02;;;;;;;0.88;0.50;;;;;;;;;;5017503;28;20049;-65
2023/08/16 10:20:33;;;;;;;0.60;0.43;;;;;;;;;;5018004;28;20497;-65
2023/08/16 10:23:03;;;;;;;0.43;0.30;;;;;;;;;;5017807;28;20045;-65
2023/08/16 10:25:33;;;;;;;1.05;0.28;;;;;;;;;;5014780;28;20380;-65
2023/08/16 10:28:01;;;;;;;0.52;0.30;;;;;;;;;;5014987;28;20640;-65
2023/08/16 10:30:27;;;;;;;1.38;0.50;;;;;;;;;;5018748;28;20077;-65
2023/08/16 10:32:56;;;;;;;1.17;0.60;;;;;;;;;;5018257;28;20693;-65
2023/08/16 10:35:23;;;;;;;0.50;0.50;;;;;;;;;;5014909;28;20049;-65
2023/08/16 10:37:49;;;;;;;0.28;0.28;;;;;;;;;;5015276;28;20149;-65
2023/08/16 10:40:19;;;;;;;0.50;0.45;;;;;;;;;;5014584;28;20053;-65
2023/08/16 10:42:49;;;;;;;0.40;0.20;;;;;;;;;;5018321;28;20049;-65
2023/08/16 10:45:23;;;;;;;0.40;0.30;;;;;;;;;;5017458;28;20041;-65
2023/08/16 10:47:49;;;;;;;0.35;0.30;;;;;;;;;;5014220;28;20512;-64
2023/08/16 10:50:15;;;;;;;1.20;0.50;;;;;;;;;;5014808;28;20053;-64
2023/08/16 10:52:42;;;;;;;0.47;0.40;;;;;;;;;;5017115;28;20037;-64
2023/08/16 10:55:09;;;;;;;1.65;0.45;;;;;;;;;;5016457;28;20503;-64
2023/08/16 10:57:35;;;;;;;0.40;0.35;;;;;;;;;;5017060;28;20045;-64
2023/08/16 11:00:07;;;;;;;0.20;0.20;;;;;;;;;;5014066;28;20038;-64
2023/08/16 11:02:35;;;;;;;1.05;0.52;;;;;;;;;;5013893;28;20492;-65
2023/08/16 11:05:01;;;;;;;0.75;0.30;;;;;;;;;;5013994;28;20379;-65
2023/08/16 11:07:28;;;;;;;0.82;0.30;;;;;;;;;;5013910;28;20444;-65
2023/08/16 11:10:01;;;;;;;1.88;0.50;;;;;;;;;;5022156;28;20638;-65
2023/08/16 11:12:31;;;;;;;1.45;0.30;;;;;;;;;;5017261;28;20037;-65
2023/08/16 11:14:57;;;;;;;0.50;0.40;;;;;;;;;;5015893;28;20041;-65
2023/08/16 11:17:27;;;;;;;0.30;0.30;;;;;;;;;;5013401;28;20287;-65
2023/08/16 11:19:54;;;;;;;0.75;0.40;;;;;;;;;;5014776;28;20056;-65
2023/08/16 11:22:24;;;;;;;0.52;0.35;;;;;;;;;;5016953;28;20043;-65
2023/08/16 11:24:50;;;;;;;0.43;0.32;;;;;;;;;;5017070;28;20048;-65
2023/08/16 11:27:23;;;;;;;0.47;0.30;;;;;;;;;;5013929;28;20506;-65
2023/08/16 11:29:54;;;;;;;0.20;0.20;;;;;;;;;;5013286;28;20049;-65
2023/08/16 11:32:37;;;;;;;0.30;0.30;;;;;;;;;;5015565;28;20042;-65
2023/08/16 11:35:06;;;;;;;0.30;0.30;;;;;;;;;;5016759;28;20291;-65
2023/08/16 11:37:33;;;;;;;0.25;0.25;;;;;;;;;;5015816;28;20033;-65
2023/08/16 11:39:59;;;;;;;0.68;0.45;;;;;;;;;;5016385;28;20045;-65
2023/08/16 11:42:26;;;;;;;0.73;0.40;;;;;;;;;;5015154;28;20056;-65
2023/08/16 11:44:52;;;;;;;0.40;0.35;;;;;;;;;;5013106;28;20050;-65
2023/08/16 11:47:18;;;;;;;0.93;0.52;;;;;;;;;;5013212;28;20048;-65
2023/08/16 11:49:44;;;;;;;1.00;0.35;;;;;;;;;;5013507;28;20046;-65
2023/08/16 11:52:10;;;;;;;0.38;0.20;;;;;;;;;;5012749;28;20050;-65
2023/08/16 11:54:36;;;;;;;0.20;0.20;;;;;;;;;;5015616;28;20042;-65
2023/08/16 11:57:02;;;;;;;0.40;0.28;;;;;;;;;;5016145;28;20058;-65
2023/08/16 11:59:29;;;;;;;0.57;0.25;;;;;;;;;;5015828;28;20065;-65
2023/08/16 12:01:55;;;;;;;0.30;0.30;;;;;;;;;;5013509;28;20657;-65
2023/08/16 12:04:22;;;;;;;0.75;0.40;;;;;;;;;;5013233;28;20464;-65
2023/08/16 12:06:49;;;;;;;0.65;0.32;;;;;;;;;;5014463;28;20071;-65
2023/08/16 12:09:16;;;;;;;0.43;0.30;;;;;;;;;;5016073;28;20724;-65
2023/08/16 12:11:42;;;;;;;0.43;0.30;;;;;;;;;;5015890;28;20040;-65
2023/08/16 12:14:08;;;;;;;0.28;0.22;;;;;;;;;;5016614;28;20410;-65
2023/08/16 12:16:34;;;;;;;0.38;0.35;;;;;;;;;;5016973;28;20173;-65
2023/08/16 12:19:01;;;;;;;0.10;0.10;;;;;;;;;;5014270;28;20045;-65
2023/08/16 12:21:27;;;;;;;0.63;0.20;;;;;;;;;;5012889;28;20033;-65
2023/08/16 12:23:53;;;;;;;0.30;0.25;;;;;;;;;;5013007;28;20055;-64
2023/08/16 12:26:19;;;;;;;0.80;0.30;;;;;;;;;;5011889;28;20033;-65
2023/08/16 12:28:45;;;;;;;0.47;0.30;;;;;;;;;;5013246;28;20048;-65
2023/08/16 12:31:11;;;;;;;0.40;0.30;;;;;;;;;;5014438;28;20042;-65
2023/08/16 12:33:37;;;;;;;0.47;0.28;;;;;;;;;;5015959;28;20445;-65
2023/08/16 12:36:04;;;;;;;1.58;0.40;;;;;;;;;;5016201;28;20049;-65
2023/08/16 12:38:30;;;;;;;0.30;0.20;;;;;;;;;;5012688;28;20042;-65
2023/08/16 12:40:56;;;;;;;0.90;0.22;;;;;;;;;;5011962;28;20530;-65
2023/08/16 12:43:22;;;;;;;0.32;0.30;;;;;;;;;;5013573;28;20052;-65
2023/08/16 12:45:48;;;;;;;0.50;0.30;;;;;;;;;;5015856;28;20103;-65
2023/08/16 12:48:14;;;;;;;0.45;0.30;;;;;;;;;;5016520;28;20568;-65
2023/08/16 12:50:40;;;;;;;0.57;0.30;;;;;;;;;;5016995;28;20045;-65
2023/08/16 12:53:09;;;;;;;0.43;0.30;;;;;;;;;;5016768;28;20494;-65
2023/08/16 12:55:36;;;;;;;1.75;0.40;;;;;;;;;;5017644;28;20093;-65
2023/08/16 12:58:02;;;;;;;0.60;0.40;;;;;;;;;;5019701;28;20048;-65
2023/08/16 13:00:29;;;;;;;0.55;0.40;;;;;;;;;;5019589;28;20052;-65
2023/08/16 13:02:57;;;;;;;0.40;0.30;;;;;;;;;;5016270;28;20068;-65
2023/08/16 13:05:24;;;;;;;0.20;0.10;;;;;;;;;;5016335;28;20054;-65
2023/08/16 13:07:50;;;;;;;0.25;0.22;;;;;;;;;;5018682;28;20050;-65
2023/08/16 13:10:16;;;;;;;0.30;0.28;;;;;;;;;;5019295;28;20045;-65
2023/08/16 13:12:42;;;;;;;0.50;0.25;;;;;;;;;;5019842;28;20099;-65
2023/08/16 13:15:09;;;;;;;0.50;0.20;;;;;;;;;;5016070;28;20159;-65
2023/08/16 13:17:35;;;;;;;0.20;0.20;;;;;;;;;;5016648;28;20100;-65
2023/08/16 13:20:01;;;;;;;0.70;0.20;;;;;;;;;;5017477;28;20046;-65
2023/08/16 13:22:27;;;;;;;0.40;0.30;;;;;;;;;;5019220;28;20041;-65
2023/08/16 13:24:53;;;;;;;0.68;0.35;;;;;;;;;;5020849;28;20052;-65
2023/08/16 13:27:19;;;;;;;0.22;0.20;;;;;;;;;;5016877;28;20084;-65
2023/08/16 13:29:45;;;;;;;0.68;0.20;;;;;;;;;;5015400;28;20068;-65
2023/08/16 13:32:11;;;;;;;0.57;0.40;;;;;;;;;;5017412;28;20042;-65
2023/08/16 13:34:38;;;;;;;0.25;0.25;;;;;;;;;;5019688;28;20095;-65
2023/08/16 13:37:04;;;;;;;0.68;0.20;;;;;;;;;;5018314;28;20511;-65
2023/08/16 13:39:30;;;;;;;3.30;0.40;;;;;;;;;;5015841;28;20082;-65
2023/08/16 13:41:57;;;;;;;0.63;0.38;;;;;;;;;;5015972;28;20052;-65
2023/08/16 13:44:23;;;;;;;1.05;0.50;;;;;;;;;;5016368;28;20057;-65
2023/08/16 13:46:50;;;;;;;1.98;0.50;;;;;;;;;;5018969;28;20042;-65
2023/08/16 13:49:16;;;;;;;0.40;0.20;;;;;;;;;;5018655;28;20072;-65
2023/08/16 13:51:42;;;;;;;3.50;0.55;;;;;;;;;;5015353;28;20049;-65
2023/08/16 13:54:08;;;;;;;0.47;0.30;;;;;;;;;;5016361;28;20085;-65
2023/08/16 13:56:34;;;;;;;0.35;0.35;;;;;;;;;;5017564;28;20065;-65
2023/08/16 13:59:00;;;;;;;0.30;0.20;;;;;;;;;;5018595;28;20052;-65
2023/08/16 14:01:26;;;;;;;0.47;0.17;;;;;;;;;;5018425;28;20037;-65
2023/08/16 14:03:52;;;;;;;0.77;0.30;;;;;;;;;;5016087;28;20132;-65
2023/08/16 14:06:18;;;;;;;0.15;0.15;;;;;;;;;;5015151;28;20033;-65
2023/08/16 14:08:44;;;;;;;1.00;0.47;;;;;;;;;;5016506;28;20117;-65
2023/08/16 14:11:10;;;;;;;0.43;0.30;;;;;;;;;;5018439;28;20463;-65
2023/08/16 14:13:36;;;;;;;1.00;0.30;;;;;;;;;;5018833;28;20047;-65
2023/08/16 14:16:04;;;;;;;0.47;0.20;;;;;;;;;;5015948;28;20045;-65
2023/08/16 14:18:30;;;;;;;0.25;0.25;;;;;;;;;;5014730;28;20488;-65
2023/08/16 14:20:56;;;;;;;0.73;0.40;;;;;;;;;;5014469;28;20049;-65
2023/08/16 14:23:22;;;;;;;1.73;0.45;;;;;;;;;;5018213;28;20037;-65
2023/08/16 14:25:52;;;;;;;0.88;0.40;;;;;;;;;;5018056;28;20068;-65
2023/08/16 14:28:18;;;;;;;0.17;0.17;;;;;;;;;;5009862;28;20041;-65
2023/08/16 14:30:46;;;;;;;1.10;0.20;;;;;;;;;;5018075;28;20045;-65
2023/08/16 14:33:16;;;;;;;1.17;0.40;;;;;;;;;;5015943;28;20056;-65
2023/08/16 14:35:42;;;;;;;0.50;0.30;;;;;;;;;;5015052;28;20095;-65
2023/08/16 14:38:09;;;;;;;1.02;0.45;;;;;;;;;;5015048;28;20041;-65